createdAt,value
2023-03-19T00:00:30.945Z,1.60
2023-03-19T00:02:58.232Z,2.22
2023-03-19T00:05:25.500Z,3.60
2023-03-19T00:07:52.536Z,2.35
2023-03-19T00:10:19.610Z,2.53
2023-03-19T00:12:47.497Z,1.35
2023-03-19T00:15:16.126Z,1.23
2023-03-19T00:17:43.840Z,1.67
2023-03-19T00:20:12.691Z,1.65
2023-03-19T00:22:40.125Z,1.38
2023-03-19T00:25:08.732Z,1.63
2023-03-19T00:27:37.560Z,1.67
2023-03-19T00:30:06.600Z,1.40
2023-03-19T00:32:35.317Z,7.93
2023-03-19T00:35:02.854Z,1.42
2023-03-19T00:37:30.181Z,1.30
2023-03-19T00:39:57.244Z,1.75
2023-03-19T00:42:24.290Z,1.27
2023-03-19T00:44:51.323Z,2.53
2023-03-19T00:47:18.729Z,2.05
2023-03-19T00:49:45.884Z,1.98
2023-03-19T00:52:12.940Z,3.25
2023-03-19T00:54:40.570Z,4.00
2023-03-19T00:57:08.237Z,1.52
2023-03-19T00:59:35.407Z,1.73
2023-03-19T01:02:03.772Z,2.92
2023-03-19T01:04:30.897Z,2.45
2023-03-19T01:09:26.855Z,1.67
2023-03-19T01:11:53.890Z,3.70
2023-03-19T01:14:21.626Z,3.03
2023-03-19T01:16:48.775Z,1.80
2023-03-19T01:19:16.537Z,1.67
2023-03-19T01:21:46.446Z,2.90
2023-03-19T01:24:17.311Z,2.95
2023-03-19T01:26:46.523Z,2.75
2023-03-19T01:29:20.473Z,0.73
2023-03-19T01:31:47.493Z,3.88
2023-03-19T01:34:41.122Z,2.60
2023-03-19T01:37:10.214Z,1.90
2023-03-19T01:39:38.732Z,2.30
2023-03-19T01:44:45.902Z,2.13
2023-03-19T01:47:47.541Z,1.25
2023-03-19T01:50:40.453Z,2.55
2023-03-19T01:53:32.854Z,1.38
2023-03-19T01:56:23.696Z,3.00
2023-03-19T01:59:31.514Z,4.13
2023-03-19T02:02:30.696Z,2.90
2023-03-19T02:05:11.389Z,1.40
2023-03-19T02:07:41.364Z,1.58
2023-03-19T02:10:12.093Z,2.55
2023-03-19T02:12:39.785Z,3.95
2023-03-19T02:15:09.380Z,1.88
2023-03-19T02:17:38.318Z,2.47
2023-03-19T02:20:17.614Z,2.05
2023-03-19T02:23:03.386Z,1.52
2023-03-19T02:25:56.874Z,3.05
2023-03-19T02:28:26.891Z,2.78
2023-03-19T02:30:54.568Z,3.20
2023-03-19T02:33:21.784Z,1.25
2023-03-19T02:35:52.123Z,1.63
2023-03-19T02:38:23.084Z,2.20
2023-03-19T02:41:01.483Z,2.78
2023-03-19T02:43:29.879Z,2.17
2023-03-19T02:45:57.837Z,2.72
2023-03-19T02:48:25.387Z,4.63
2023-03-19T02:50:52.492Z,3.42
2023-03-19T02:53:19.532Z,3.15
2023-03-19T02:55:47.072Z,3.70
2023-03-19T02:58:14.297Z,2.58
2023-03-19T03:00:43.085Z,1.98
2023-03-19T03:03:10.139Z,2.20
2023-03-19T03:05:37.366Z,3.30
2023-03-19T03:08:05.440Z,3.92
2023-03-19T03:10:33.851Z,1.80
2023-03-19T03:13:01.634Z,2.20
2023-03-19T03:15:28.739Z,3.58
2023-03-19T03:17:56.818Z,2.67
2023-03-19T03:20:24.815Z,3.60
2023-03-19T03:22:53.682Z,3.60
2023-03-19T03:25:21.179Z,2.63
2023-03-19T03:27:48.394Z,3.35
2023-03-19T03:30:16.271Z,4.53
2023-03-19T03:32:43.982Z,3.95
2023-03-19T03:35:11.638Z,4.32
2023-03-19T03:37:39.695Z,3.47
2023-03-19T03:40:08.416Z,3.90
2023-03-19T03:42:37.536Z,4.35
2023-03-19T03:45:09.640Z,4.37
2023-03-19T03:47:37.683Z,3.83
2023-03-19T03:50:05.343Z,2.75
2023-03-19T03:52:34.164Z,7.80
2023-03-19T03:55:01.437Z,4.10
2023-03-19T03:57:29.673Z,3.13
2023-03-19T03:59:57.135Z,4.85
2023-03-19T04:02:25.216Z,4.78
2023-03-19T04:04:52.441Z,3.88
2023-03-19T04:07:19.601Z,5.10
2023-03-19T04:09:51.636Z,5.57
2023-03-19T04:12:19.028Z,5.82
2023-03-19T04:14:47.693Z,3.58
2023-03-19T04:17:14.701Z,3.92
2023-03-19T04:19:43.356Z,4.88
2023-03-19T04:22:10.501Z,3.90
2023-03-19T04:24:37.960Z,4.30
2023-03-19T04:27:05.004Z,5.30
2023-03-19T04:29:32.715Z,5.30
2023-03-19T04:32:00.924Z,5.38
2023-03-19T04:34:27.925Z,8.05
2023-03-19T04:36:54.955Z,6.57
2023-03-19T04:39:22.024Z,5.47
2023-03-19T04:41:51.928Z,4.75
2023-03-19T04:44:29.913Z,5.80
2023-03-19T04:46:59.700Z,5.65
2023-03-19T04:49:27.328Z,3.95
2023-03-19T04:51:57.067Z,4.78
2023-03-19T04:54:25.259Z,5.43
2023-03-19T04:56:53.649Z,7.18
2023-03-19T04:59:23.310Z,6.18
2023-03-19T05:01:51.019Z,4.10
2023-03-19T05:04:21.936Z,4.27
2023-03-19T05:06:54.011Z,5.88
2023-03-19T05:09:21.038Z,3.38
2023-03-19T05:11:48.005Z,9.60
2023-03-19T05:14:19.515Z,6.07
2023-03-19T05:17:11.265Z,6.85
2023-03-19T05:19:50.278Z,5.30
2023-03-19T05:22:18.191Z,5.28
2023-03-19T05:24:45.733Z,5.70
2023-03-19T05:27:13.423Z,7.60
2023-03-19T05:29:49.517Z,5.53
2023-03-19T05:32:56.883Z,5.50
2023-03-19T05:35:32.034Z,5.78
2023-03-19T05:38:00.248Z,6.45
2023-03-19T05:40:28.944Z,7.25
2023-03-19T05:42:58.061Z,5.60
2023-03-19T05:45:28.076Z,5.65
2023-03-19T05:47:58.914Z,4.70
2023-03-19T05:50:26.298Z,4.20
2023-03-19T05:53:17.164Z,5.03
2023-03-19T05:55:54.048Z,8.18
2023-03-19T05:58:21.133Z,6.07
2023-03-19T06:00:48.801Z,8.13
2023-03-19T06:03:16.722Z,7.53
2023-03-19T06:05:50.845Z,4.68
2023-03-19T06:08:35.161Z,6.18
2023-03-19T06:11:09.917Z,6.95
2023-03-19T06:13:38.202Z,6.28
2023-03-19T06:16:07.952Z,4.50
2023-03-19T06:18:38.776Z,4.10
2023-03-19T06:21:09.778Z,8.20
2023-03-19T06:23:37.278Z,5.78
2023-03-19T06:26:06.165Z,5.80
2023-03-19T06:28:41.195Z,4.60
2023-03-19T06:31:08.902Z,6.25
2023-03-19T06:33:55.255Z,4.80
2023-03-19T06:36:26.133Z,5.03
2023-03-19T06:38:53.672Z,7.15
2023-03-19T06:41:21.332Z,4.80
2023-03-19T06:43:49.509Z,5.07
2023-03-19T06:46:16.552Z,5.82
2023-03-19T06:48:43.515Z,5.85
2023-03-19T06:51:11.797Z,4.70
2023-03-19T06:53:40.058Z,5.22
2023-03-19T06:56:07.066Z,4.75
2023-03-19T06:58:35.374Z,5.30
2023-03-19T07:01:04.028Z,5.53
2023-03-19T07:03:31.379Z,6.78
2023-03-19T07:05:58.482Z,4.97
2023-03-19T07:08:29.707Z,6.75
2023-03-19T07:10:57.755Z,7.90
2023-03-19T07:13:24.780Z,6.30
2023-03-19T07:15:51.783Z,4.57
2023-03-19T07:18:18.840Z,6.32
2023-03-19T07:20:46.427Z,8.18
2023-03-19T07:23:13.563Z,4.88
2023-03-19T07:25:40.732Z,6.80
2023-03-19T07:28:07.678Z,7.95
2023-03-19T07:30:35.938Z,5.03
2023-03-19T07:33:03.327Z,6.57
2023-03-19T07:35:30.611Z,4.47
2023-03-19T07:37:57.632Z,6.75
2023-03-19T07:40:24.796Z,8.13
2023-03-19T07:42:51.995Z,8.88
2023-03-19T07:45:19.184Z,9.30
2023-03-19T07:47:50.187Z,11.38
2023-03-19T07:50:17.708Z,13.98
2023-03-19T07:52:48.756Z,23.52
2023-03-19T07:55:16.081Z,24.00
2023-03-19T07:57:43.302Z,17.45
2023-03-19T08:00:11.384Z,16.75
2023-03-19T08:02:42.973Z,17.52
2023-03-19T08:05:10.312Z,20.00
2023-03-19T08:07:37.773Z,21.05
2023-03-19T08:10:05.746Z,15.73
2023-03-19T08:12:34.511Z,21.73
2023-03-19T08:15:01.502Z,22.92
2023-03-19T08:17:28.965Z,17.38
2023-03-19T08:19:56.019Z,17.55
2023-03-19T08:22:23.040Z,21.95
2023-03-19T08:24:49.925Z,21.25
2023-03-19T08:27:16.936Z,23.90
2023-03-19T08:29:43.891Z,18.85
2023-03-19T08:32:11.365Z,24.75
2023-03-19T08:34:38.288Z,16.95
2023-03-19T08:37:06.382Z,15.75
2023-03-19T08:39:33.417Z,15.20
2023-03-19T08:42:00.468Z,15.30
2023-03-19T08:44:27.496Z,11.88
2023-03-19T08:46:54.715Z,17.05
2023-03-19T08:49:22.095Z,15.75
2023-03-19T08:51:49.762Z,14.77
2023-03-19T08:54:17.672Z,12.05
2023-03-19T08:56:44.569Z,16.13
2023-03-19T08:59:12.022Z,19.08
2023-03-19T09:01:39.035Z,13.43
2023-03-19T09:04:06.274Z,16.38
2023-03-19T09:06:33.280Z,14.07
2023-03-19T09:09:00.486Z,12.25
2023-03-19T09:11:27.708Z,14.68
2023-03-19T09:13:54.784Z,14.40
2023-03-19T09:16:21.987Z,11.18
2023-03-19T09:18:49.080Z,9.65
2023-03-19T09:21:16.339Z,12.30
2023-03-19T09:23:43.327Z,14.30
2023-03-19T09:26:10.600Z,14.40
2023-03-19T09:28:38.272Z,12.70
2023-03-19T09:31:09.453Z,14.07
2023-03-19T09:33:36.560Z,14.93
2023-03-19T09:36:03.921Z,14.82
2023-03-19T09:38:31.277Z,20.42
2023-03-19T09:41:21.542Z,13.80
2023-03-19T09:43:51.260Z,13.90
2023-03-19T09:46:24.684Z,18.45
2023-03-19T09:48:58.017Z,17.85
2023-03-19T09:51:32.853Z,16.20
2023-03-19T09:54:08.864Z,14.77
2023-03-19T09:56:35.784Z,12.30
2023-03-19T09:59:03.425Z,14.00
2023-03-19T10:01:37.253Z,14.15
2023-03-19T10:04:22.939Z,13.43
2023-03-19T10:06:56.430Z,14.90
2023-03-19T10:09:53.390Z,11.07
2023-03-19T10:12:38.763Z,11.25
2023-03-19T10:15:14.271Z,11.80
2023-03-19T10:17:49.652Z,10.07
2023-03-19T10:20:28.490Z,10.45
2023-03-19T10:23:07.018Z,10.45
2023-03-19T10:25:39.752Z,8.85
2023-03-19T10:28:16.331Z,11.18
2023-03-19T10:30:48.716Z,10.43
2023-03-19T10:33:24.177Z,10.40
2023-03-19T10:36:24.715Z,17.58
2023-03-19T10:38:52.771Z,9.85
2023-03-19T10:41:58.979Z,10.93
2023-03-19T10:44:31.941Z,10.77
2023-03-19T10:47:16.320Z,10.93
2023-03-19T10:49:43.499Z,11.55
2023-03-19T10:52:27.318Z,7.22
2023-03-19T10:55:05.150Z,14.10
2023-03-19T10:57:33.189Z,11.07
2023-03-19T11:00:11.017Z,9.68
2023-03-19T11:02:45.889Z,11.30
2023-03-19T11:05:12.907Z,11.90
2023-03-19T11:07:40.380Z,9.40
2023-03-19T11:10:17.674Z,10.60
2023-03-19T11:12:52.873Z,12.07
2023-03-19T11:15:26.400Z,11.40
2023-03-19T11:17:59.635Z,13.77
2023-03-19T11:20:26.688Z,15.93
2023-03-19T11:22:56.372Z,12.18
2023-03-19T11:25:29.776Z,12.82
2023-03-19T11:28:09.258Z,13.05
2023-03-19T11:30:59.074Z,7.35
2023-03-19T11:33:37.933Z,15.23
2023-03-19T11:36:41.965Z,12.70
2023-03-19T11:39:28.459Z,10.25
2023-03-19T11:42:18.954Z,8.00
2023-03-19T11:45:05.332Z,9.65
2023-03-19T11:48:13.207Z,9.10
2023-03-19T11:50:52.082Z,6.57
2023-03-19T11:53:50.102Z,13.40
2023-03-19T11:56:55.780Z,11.65
2023-03-19T11:59:50.804Z,7.47
2023-03-19T12:02:26.187Z,9.18
2023-03-19T12:05:19.499Z,12.07
2023-03-19T12:08:05.036Z,9.80
2023-03-19T12:10:51.116Z,9.00
2023-03-19T12:13:36.726Z,10.82
2023-03-19T12:16:45.763Z,14.32
2023-03-19T12:19:13.697Z,13.93
2023-03-19T12:22:09.102Z,20.73
2023-03-19T12:24:45.855Z,11.60
2023-03-19T12:27:39.578Z,10.88
2023-03-19T12:30:19.076Z,12.32
2023-03-19T12:33:23.601Z,15.52
2023-03-19T12:35:56.175Z,11.85
2023-03-19T12:38:48.446Z,9.88
2023-03-19T12:41:35.698Z,11.50
2023-03-19T12:44:10.488Z,10.93
2023-03-19T12:46:44.591Z,26.88
2023-03-19T12:49:37.068Z,11.02
2023-03-19T12:52:07.212Z,11.52
2023-03-19T12:54:40.814Z,12.48
2023-03-19T12:57:16.754Z,12.82
2023-03-19T13:00:00.503Z,12.60
2023-03-19T13:02:30.529Z,11.40
2023-03-19T13:05:09.250Z,14.40
2023-03-19T13:07:50.682Z,10.40
2023-03-19T13:10:22.078Z,11.48
2023-03-19T13:12:51.346Z,17.70
2023-03-19T13:15:36.096Z,11.60
2023-03-19T13:18:09.310Z,8.93
2023-03-19T13:20:57.593Z,7.97
2023-03-19T13:23:30.033Z,8.95
2023-03-19T13:25:59.603Z,8.38
2023-03-19T13:28:35.700Z,10.15
2023-03-19T13:31:20.247Z,9.85
2023-03-19T13:34:00.186Z,8.35
2023-03-19T13:36:30.674Z,8.70
2023-03-19T13:39:00.848Z,7.55
2023-03-19T13:41:37.715Z,6.72
2023-03-19T13:44:32.384Z,7.45
2023-03-19T13:47:24.211Z,8.93
2023-03-19T13:50:08.480Z,11.25
2023-03-19T13:52:44.960Z,13.50
2023-03-19T13:55:24.924Z,8.65
2023-03-19T13:58:12.256Z,8.70
2023-03-19T14:00:45.225Z,13.43
2023-03-19T14:03:29.761Z,8.48
2023-03-19T14:05:58.028Z,9.60
2023-03-19T14:08:28.485Z,7.88
2023-03-19T14:10:58.753Z,8.55
2023-03-19T14:13:32.085Z,6.50
2023-03-19T14:16:11.962Z,7.45
2023-03-19T14:18:42.438Z,5.57
2023-03-19T14:21:16.275Z,9.70
2023-03-19T14:23:55.034Z,9.57
2023-03-19T14:26:25.538Z,7.50
2023-03-19T14:29:06.172Z,5.35
2023-03-19T14:31:39.546Z,7.78
2023-03-19T14:34:21.889Z,7.25
2023-03-19T14:37:15.117Z,7.18
2023-03-19T14:39:45.042Z,6.63
2023-03-19T14:42:33.648Z,6.97
2023-03-19T14:45:31.546Z,9.93
2023-03-19T14:48:55.946Z,9.05
2023-03-19T14:51:32.011Z,7.05
2023-03-19T14:54:18.966Z,6.93
2023-03-19T14:56:48.168Z,7.57
2023-03-19T14:59:17.185Z,4.50
2023-03-19T15:01:51.902Z,5.93
2023-03-19T15:04:22.978Z,6.40
2023-03-19T15:06:55.284Z,4.75
2023-03-19T15:09:31.888Z,5.72
2023-03-19T15:12:17.288Z,6.18
2023-03-19T15:15:23.688Z,4.57
2023-03-19T15:18:20.908Z,6.13
2023-03-19T15:20:54.418Z,4.53
2023-03-19T15:23:31.083Z,6.18
2023-03-19T15:26:02.181Z,7.30
2023-03-19T15:28:44.657Z,4.43
2023-03-19T15:31:30.297Z,3.58
2023-03-19T15:34:00.289Z,5.15
2023-03-19T15:36:33.407Z,8.02
2023-03-19T15:39:08.524Z,4.00
2023-03-19T15:41:41.796Z,4.40
2023-03-19T15:44:16.781Z,4.93
2023-03-19T15:46:46.104Z,6.60
2023-03-19T15:49:28.561Z,4.03
2023-03-19T15:51:59.702Z,5.68
2023-03-19T15:54:27.510Z,7.05
2023-03-19T15:56:56.068Z,7.03
2023-03-19T15:59:26.654Z,5.80
2023-03-19T16:02:01.226Z,4.13
2023-03-19T16:04:45.651Z,8.60
2023-03-19T16:09:51.855Z,5.45
2023-03-19T16:12:39.192Z,7.32
2023-03-19T16:15:28.796Z,7.35
2023-03-19T16:17:58.633Z,3.33
2023-03-19T16:20:31.014Z,3.72
2023-03-19T16:23:00.838Z,4.35
2023-03-19T16:25:32.380Z,4.15
2023-03-19T16:27:59.387Z,3.58
2023-03-19T16:30:30.927Z,1.63
2023-03-19T16:33:03.869Z,2.85
2023-03-19T16:35:39.678Z,5.38
2023-03-19T16:38:14.422Z,3.17
2023-03-19T16:40:47.294Z,4.68
2023-03-19T16:43:18.813Z,3.80
2023-03-19T16:45:50.894Z,3.33
2023-03-19T16:48:18.468Z,8.65
2023-03-19T16:50:47.401Z,3.13
2023-03-19T16:53:30.243Z,7.10
2023-03-19T16:55:59.261Z,5.63
2023-03-19T16:58:29.805Z,3.63
2023-03-19T17:00:56.972Z,4.43
2023-03-19T17:03:25.998Z,6.85
2023-03-19T17:05:53.024Z,5.72
2023-03-19T17:08:21.845Z,5.07
2023-03-19T17:10:51.180Z,7.30
2023-03-19T17:13:30.160Z,6.70
2023-03-19T17:16:07.176Z,2.95
2023-03-19T17:18:41.921Z,5.47
2023-03-19T17:21:25.368Z,4.00
2023-03-19T17:23:53.321Z,6.88
2023-03-19T17:26:26.389Z,4.80
2023-03-19T17:28:55.457Z,4.20
2023-03-19T17:31:31.664Z,3.78
2023-03-19T17:34:04.894Z,3.75
2023-03-19T17:36:32.388Z,2.90
2023-03-19T17:38:59.446Z,4.32
2023-03-19T17:41:26.405Z,3.15
2023-03-19T17:43:53.368Z,3.10
2023-03-19T17:46:26.031Z,2.40
2023-03-19T17:48:54.013Z,3.00
2023-03-19T17:51:23.706Z,2.03
2023-03-19T17:53:53.523Z,2.00
2023-03-19T17:56:25.140Z,3.58
2023-03-19T17:58:53.670Z,7.95
2023-03-19T18:01:27.360Z,4.47
2023-03-19T18:03:56.427Z,3.90
2023-03-19T18:06:26.308Z,4.65
2023-03-19T18:08:55.112Z,2.55
2023-03-19T18:11:25.292Z,2.47
2023-03-19T18:13:52.658Z,2.88
2023-03-19T18:16:31.919Z,3.35
2023-03-19T18:19:01.623Z,4.75
2023-03-19T18:21:29.461Z,3.63
2023-03-19T18:23:57.413Z,3.70
2023-03-19T18:26:25.440Z,8.65
2023-03-19T18:28:55.722Z,3.13
2023-03-19T18:31:25.608Z,4.05
2023-03-19T18:34:01.736Z,7.20
2023-03-19T18:36:31.665Z,3.85
2023-03-19T18:38:59.421Z,4.10
2023-03-19T18:41:30.985Z,5.65
2023-03-19T18:44:05.799Z,7.13
2023-03-19T18:46:34.159Z,6.72
2023-03-19T18:49:06.428Z,8.63
2023-03-19T18:51:33.504Z,8.95
2023-03-19T18:54:01.668Z,6.30
2023-03-19T18:56:35.053Z,6.32
2023-03-19T18:59:11.504Z,10.00
2023-03-19T19:01:38.548Z,10.73
2023-03-19T19:04:05.777Z,6.07
2023-03-19T19:06:46.918Z,5.47
2023-03-19T19:09:14.981Z,8.70
2023-03-19T19:11:47.611Z,8.68
2023-03-19T19:14:23.425Z,9.13
2023-03-19T19:16:51.378Z,5.25
2023-03-19T19:19:22.630Z,6.47
2023-03-19T19:21:53.524Z,7.93
2023-03-19T19:24:23.883Z,8.30
2023-03-19T19:26:54.118Z,7.72
2023-03-19T19:29:26.663Z,6.45
2023-03-19T19:31:54.538Z,4.97
2023-03-19T19:34:22.381Z,3.45
2023-03-19T19:36:50.904Z,4.15
2023-03-19T19:39:18.993Z,6.50
2023-03-19T19:41:46.754Z,3.28
2023-03-19T19:44:19.838Z,6.43
2023-03-19T19:46:46.880Z,5.70
2023-03-19T19:49:15.566Z,7.53
2023-03-19T19:51:42.670Z,4.97
2023-03-19T19:54:09.740Z,3.85
2023-03-19T19:56:37.444Z,5.63
2023-03-19T19:59:07.857Z,4.68
2023-03-19T20:01:35.347Z,5.03
2023-03-19T20:04:04.212Z,4.40
2023-03-19T20:06:31.589Z,4.55
2023-03-19T20:08:58.550Z,6.18
2023-03-19T20:11:26.510Z,6.25
2023-03-19T20:13:55.990Z,4.10
2023-03-19T20:16:26.831Z,2.60
2023-03-19T20:18:55.138Z,10.63
2023-03-19T20:21:22.900Z,4.30
2023-03-19T20:23:53.358Z,6.00
2023-03-19T20:26:23.679Z,5.13
2023-03-19T20:28:51.556Z,6.25
2023-03-19T20:31:21.552Z,5.10
2023-03-19T20:33:48.843Z,4.53
2023-03-19T20:36:15.936Z,6.18
2023-03-19T20:38:43.118Z,3.63
2023-03-19T20:41:36.083Z,5.20
2023-03-19T20:44:05.779Z,3.85
2023-03-19T20:46:33.828Z,2.92
2023-03-19T20:49:01.606Z,2.50
2023-03-19T20:51:31.595Z,3.17
2023-03-19T20:53:58.877Z,3.97
2023-03-19T20:56:26.266Z,3.92
2023-03-19T20:58:53.377Z,2.92
2023-03-19T21:01:21.706Z,3.72
2023-03-19T21:03:50.465Z,7.80
2023-03-19T21:06:24.932Z,5.35
2023-03-19T21:08:57.169Z,6.45
2023-03-19T21:11:40.610Z,7.28
2023-03-19T21:14:16.275Z,6.65
2023-03-19T21:16:43.765Z,4.88
2023-03-19T21:19:12.713Z,5.70
2023-03-19T21:21:40.098Z,7.15
2023-03-19T21:24:13.023Z,7.50
2023-03-19T21:26:41.725Z,5.72
2023-03-19T21:29:16.032Z,7.28
2023-03-19T21:31:43.372Z,7.93
2023-03-19T21:34:14.595Z,7.70
2023-03-19T21:36:42.389Z,8.68
2023-03-19T21:39:09.414Z,8.88
2023-03-19T21:41:37.615Z,9.55
2023-03-19T21:44:09.675Z,6.32
2023-03-19T21:46:36.830Z,7.38
2023-03-19T21:49:06.188Z,8.98
2023-03-19T21:51:33.263Z,9.95
2023-03-19T21:54:00.383Z,5.57
2023-03-19T21:56:34.214Z,5.43
2023-03-19T21:59:04.373Z,11.30
2023-03-19T22:01:31.482Z,12.00
2023-03-19T22:03:58.738Z,8.20
2023-03-19T22:06:26.041Z,6.47
2023-03-19T22:08:54.280Z,4.82
2023-03-19T22:11:26.597Z,5.70
2023-03-19T22:13:55.472Z,7.55
2023-03-19T22:16:24.865Z,6.03
2023-03-19T22:18:53.248Z,7.82
2023-03-19T22:21:22.870Z,6.72
2023-03-19T22:23:51.473Z,7.82
2023-03-19T22:26:34.173Z,8.38
2023-03-19T22:29:07.645Z,7.55
2023-03-19T22:31:35.421Z,7.95
2023-03-19T22:34:02.831Z,7.38
2023-03-19T22:36:29.868Z,7.78
2023-03-19T22:38:57.762Z,8.25
2023-03-19T22:41:38.994Z,6.07
2023-03-19T22:44:08.900Z,8.63
2023-03-19T22:46:36.249Z,10.65
2023-03-19T22:49:12.612Z,7.95
2023-03-19T22:51:39.705Z,7.55
2023-03-19T22:54:06.825Z,8.90
2023-03-19T22:56:34.024Z,10.20
2023-03-19T22:59:01.272Z,8.85
2023-03-19T23:01:35.630Z,6.90
2023-03-19T23:04:21.874Z,6.07
2023-03-19T23:06:49.997Z,7.95
2023-03-19T23:09:29.415Z,7.40
2023-03-19T23:11:58.021Z,7.57
2023-03-19T23:14:30.022Z,7.15
2023-03-19T23:17:04.086Z,9.48
2023-03-19T23:19:32.270Z,7.68
2023-03-19T23:22:00.975Z,8.07
2023-03-19T23:24:30.192Z,7.07
2023-03-19T23:26:58.686Z,8.95
2023-03-19T23:29:34.845Z,7.35
2023-03-19T23:32:03.346Z,4.50
2023-03-19T23:34:30.440Z,5.45
2023-03-19T23:36:58.069Z,5.40
2023-03-19T23:39:25.719Z,5.72
2023-03-19T23:41:56.408Z,5.18
2023-03-19T23:44:23.549Z,10.77
2023-03-19T23:46:52.199Z,4.47
2023-03-19T23:49:28.848Z,7.72
2023-03-19T23:51:56.789Z,8.52
2023-03-19T23:54:35.083Z,8.25
2023-03-19T23:57:05.377Z,5.57
2023-03-19T23:59:37.023Z,6.85
